createdAt,value
2018-06-02T00:03:35.004Z,5.20
2018-06-02T00:09:03.934Z,5.07
2018-06-02T00:14:32.115Z,4.70
2018-06-02T00:20:01.021Z,5.43
2018-06-02T00:25:29.164Z,5.17
2018-06-02T00:30:58.248Z,4.87
2018-06-02T00:36:26.399Z,4.40
2018-06-02T00:41:54.562Z,4.53
2018-06-02T00:47:23.464Z,4.47
2018-06-02T00:52:51.598Z,3.40
2018-06-02T00:58:19.747Z,3.67
2018-06-02T01:03:48.109Z,3.60
2018-06-02T01:09:16.283Z,3.67
2018-06-02T01:14:44.467Z,3.00
2018-06-02T01:20:12.634Z,3.27
2018-06-02T01:25:40.775Z,2.87
2018-06-02T01:31:09.022Z,4.20
2018-06-02T01:36:37.164Z,2.93
2018-06-02T01:42:06.091Z,3.87
2018-06-02T01:47:34.236Z,3.50
2018-06-02T01:53:03.141Z,3.43
2018-06-02T01:58:31.293Z,4.00
2018-06-02T02:04:00.216Z,4.67
2018-06-02T02:09:29.108Z,3.63
2018-06-02T02:14:57.265Z,3.83
2018-06-02T02:20:25.397Z,3.97
2018-06-02T02:25:54.317Z,3.83
2018-06-02T02:31:22.471Z,4.23
2018-06-02T02:36:50.613Z,3.53
2018-06-02T02:42:18.735Z,3.97
2018-06-02T02:47:46.879Z,4.50
2018-06-02T02:53:15.045Z,3.40
2018-06-02T02:58:43.204Z,3.63
2018-06-02T03:04:11.382Z,3.60
2018-06-02T03:09:39.544Z,4.33
2018-06-02T03:15:07.748Z,3.70
2018-06-02T03:20:35.875Z,3.60
2018-06-02T03:26:04.021Z,4.30
2018-06-02T03:31:32.182Z,4.07
2018-06-02T03:37:01.301Z,4.33
2018-06-02T03:42:30.200Z,4.47
2018-06-02T03:47:58.328Z,4.10
2018-06-02T03:53:26.477Z,4.47
2018-06-02T03:58:55.383Z,4.47
2018-06-02T04:04:23.511Z,4.80
2018-06-02T04:09:51.645Z,4.53
2018-06-02T04:15:19.790Z,4.43
2018-06-02T04:20:47.919Z,4.37
2018-06-02T04:26:16.180Z,4.27
2018-06-02T04:31:44.352Z,4.70
2018-06-02T04:37:14.398Z,4.20
2018-06-02T04:42:42.583Z,4.10
2018-06-02T04:48:10.744Z,5.37
2018-06-02T04:53:38.948Z,5.00
2018-06-02T04:59:08.858Z,4.83
2018-06-02T05:04:37.003Z,5.53
2018-06-02T05:10:05.158Z,4.63
2018-06-02T05:15:34.097Z,5.90
2018-06-02T05:21:03.007Z,5.10
2018-06-02T05:26:31.154Z,5.27
2018-06-02T05:32:00.064Z,5.23
2018-06-02T05:37:28.214Z,5.80
2018-06-02T05:42:57.114Z,4.90
2018-06-02T05:48:25.244Z,5.50
2018-06-02T05:53:53.431Z,4.80
2018-06-02T05:59:21.571Z,4.80
2018-06-02T06:04:49.786Z,5.53
2018-06-02T06:10:17.960Z,4.80
2018-06-02T06:15:46.165Z,4.63
2018-06-02T06:21:15.097Z,4.70
2018-06-02T06:26:43.279Z,4.40
2018-06-02T06:32:11.496Z,4.40
2018-06-02T06:37:39.688Z,5.00
2018-06-02T06:43:08.850Z,4.87
2018-06-02T06:48:37.027Z,4.63
2018-06-02T06:54:05.962Z,4.10
2018-06-02T06:59:34.859Z,4.27
2018-06-02T07:05:03.022Z,5.03
2018-06-02T07:10:31.924Z,4.43
2018-06-02T07:16:00.238Z,4.37
2018-06-02T07:21:28.373Z,4.20
2018-06-02T07:27:09.453Z,4.60
2018-06-02T07:32:37.590Z,4.50
2018-06-02T07:38:05.763Z,4.87
2018-06-02T07:43:34.686Z,4.70
2018-06-02T07:49:02.817Z,4.10
2018-06-02T07:54:31.741Z,4.53
2018-06-02T07:59:59.925Z,5.03
2018-06-02T08:05:28.109Z,4.70
2018-06-02T08:10:57.081Z,4.10
2018-06-02T08:16:25.236Z,4.23
2018-06-02T08:21:53.391Z,4.50
2018-06-02T08:27:21.535Z,3.70
2018-06-02T08:32:49.680Z,3.93
2018-06-02T08:38:17.825Z,3.50
2018-06-02T08:43:45.970Z,3.43
2018-06-02T08:49:14.134Z,3.17
2018-06-02T08:54:42.328Z,3.43
2018-06-02T09:00:10.564Z,2.93
2018-06-02T09:05:38.749Z,3.77
2018-06-02T09:11:06.926Z,4.00
2018-06-02T09:16:35.160Z,3.97
2018-06-02T09:22:03.285Z,3.17
2018-06-02T09:27:31.416Z,3.60
2018-06-02T09:33:00.411Z,3.37
2018-06-02T09:38:28.568Z,2.90
2018-06-02T09:43:57.482Z,2.83
2018-06-02T09:49:25.624Z,2.30
2018-06-02T09:54:54.536Z,2.90
2018-06-02T10:00:25.184Z,3.10
2018-06-02T10:05:53.325Z,2.70
2018-06-02T10:11:21.489Z,2.83
2018-06-02T10:16:50.433Z,3.20
2018-06-02T10:22:19.354Z,2.30
2018-06-02T10:27:49.209Z,2.30
2018-06-02T10:33:18.128Z,2.63
2018-06-02T10:38:46.302Z,2.40
2018-06-02T10:44:14.584Z,3.00
2018-06-02T10:49:42.760Z,2.63
2018-06-02T10:55:11.015Z,2.40
2018-06-02T11:00:39.300Z,2.40
2018-06-02T11:06:07.502Z,2.70
2018-06-02T11:11:35.666Z,2.37
2018-06-02T11:17:04.152Z,2.70
2018-06-02T11:22:32.289Z,2.20
2018-06-02T11:28:00.447Z,2.30
2018-06-02T11:33:28.609Z,2.13
2018-06-02T11:38:56.963Z,2.60
2018-06-02T11:44:25.125Z,2.43
2018-06-02T11:49:53.269Z,2.43
2018-06-02T11:55:21.396Z,2.50
2018-06-02T12:00:49.643Z,6.50
2018-06-02T12:06:17.810Z,2.07
2018-06-02T12:11:46.845Z,2.20
2018-06-02T12:17:29.721Z,2.60
2018-06-02T12:22:58.387Z,2.73
2018-06-02T12:28:26.950Z,2.80
2018-06-02T12:33:55.338Z,2.30
2018-06-02T12:39:23.732Z,2.30
2018-06-02T12:44:52.841Z,2.30
2018-06-02T12:50:21.233Z,2.97
2018-06-02T12:55:49.569Z,2.40
2018-06-02T13:01:17.972Z,2.40
2018-06-02T13:06:46.848Z,2.80
2018-06-02T13:12:16.085Z,2.70
2018-06-02T13:17:44.645Z,2.43
2018-06-02T13:23:13.704Z,2.40
2018-06-02T13:28:42.847Z,2.13
2018-06-02T13:34:12.046Z,2.10
2018-06-02T13:39:40.353Z,1.70
2018-06-02T13:45:08.678Z,2.10
2018-06-02T13:50:37.030Z,2.13
2018-06-02T13:56:05.438Z,2.40
2018-06-02T14:01:37.521Z,2.40
2018-06-02T14:07:06.861Z,2.30
2018-06-02T14:12:35.486Z,2.30
2018-06-02T14:18:04.561Z,2.40
2018-06-02T14:23:32.755Z,2.20
2018-06-02T14:29:00.885Z,2.03
2018-06-02T14:34:29.039Z,1.80
2018-06-02T14:39:57.184Z,2.10
2018-06-02T14:45:26.084Z,2.00
2018-06-02T14:50:54.254Z,2.53
2018-06-02T14:56:23.198Z,2.03
2018-06-02T15:01:51.378Z,2.30
2018-06-02T15:07:19.532Z,2.30
2018-06-02T15:12:47.665Z,2.23
2018-06-02T15:18:15.803Z,1.83
2018-06-02T15:23:44.019Z,2.10
2018-06-02T15:29:12.210Z,2.33
2018-06-02T15:34:40.394Z,1.83
2018-06-02T15:40:08.550Z,1.87
2018-06-02T15:45:36.706Z,1.80
2018-06-02T15:51:04.872Z,2.10
2018-06-02T15:56:33.787Z,2.47
2018-06-02T16:02:01.976Z,1.90
2018-06-02T16:07:30.093Z,2.67
2018-06-02T16:12:59.190Z,2.50
2018-06-02T16:18:28.124Z,2.20
2018-06-02T16:23:56.267Z,2.37
2018-06-02T16:29:24.424Z,2.10
2018-06-02T16:34:52.813Z,2.57
2018-06-02T16:40:20.981Z,2.67
2018-06-02T16:45:49.185Z,1.90
2018-06-02T16:51:17.351Z,2.03
2018-06-02T16:56:45.496Z,2.60
2018-06-02T17:02:13.647Z,2.20
2018-06-02T17:07:42.759Z,2.00
2018-06-02T17:13:10.933Z,2.03
2018-06-02T17:18:45.186Z,2.20
2018-06-02T17:24:13.345Z,2.20
2018-06-02T17:29:41.504Z,2.20
2018-06-02T17:35:09.679Z,2.50
2018-06-02T17:40:37.918Z,2.73
2018-06-02T17:46:06.070Z,2.30
2018-06-02T17:51:34.291Z,2.50
2018-06-02T17:57:02.756Z,2.40
2018-06-02T18:02:30.894Z,1.90
2018-06-02T18:08:01.136Z,2.00
2018-06-02T18:13:29.283Z,2.20
2018-06-02T18:18:58.241Z,2.43
2018-06-02T18:24:27.834Z,1.70
2018-06-02T18:29:56.025Z,1.90
2018-06-02T18:35:24.283Z,1.83
2018-06-02T18:40:52.445Z,2.63
2018-06-02T18:46:21.385Z,1.90
2018-06-02T18:51:50.325Z,2.13
2018-06-02T18:57:19.252Z,2.20
2018-06-02T19:02:48.240Z,2.07
2018-06-02T19:08:16.620Z,1.97
2018-06-02T19:13:45.580Z,2.50
2018-06-02T19:19:13.752Z,2.40
2018-06-02T19:24:42.133Z,2.90
2018-06-02T19:30:10.428Z,3.33
2018-06-02T19:35:39.923Z,2.60
2018-06-02T19:41:08.232Z,4.73
2018-06-02T19:46:36.429Z,4.17
2018-06-02T19:52:04.606Z,4.57
2018-06-02T19:57:33.785Z,3.73
2018-06-02T20:03:02.713Z,2.90
2018-06-02T20:08:31.639Z,2.87
2018-06-02T20:13:59.796Z,3.23
2018-06-02T20:19:27.934Z,3.83
2018-06-02T20:24:56.072Z,4.47
2018-06-02T20:30:24.225Z,4.80
2018-06-02T20:35:53.176Z,4.03
2018-06-02T20:41:21.328Z,6.37
2018-06-02T20:46:49.475Z,5.50
2018-06-02T20:52:17.743Z,4.57
2018-06-02T20:57:45.911Z,4.90
2018-06-02T21:03:14.121Z,5.47
2018-06-02T21:08:43.382Z,4.70
2018-06-02T21:14:11.680Z,4.90
2018-06-02T21:19:39.877Z,4.33
2018-06-02T21:25:08.057Z,4.77
2018-06-02T21:30:38.058Z,4.83
2018-06-02T21:36:06.225Z,4.30
2018-06-02T21:41:34.394Z,3.67
2018-06-02T21:47:02.520Z,3.43
2018-06-02T21:52:30.738Z,3.60
2018-06-02T21:57:58.899Z,3.70
2018-06-02T22:03:27.088Z,5.10
2018-06-02T22:08:55.417Z,4.30
2018-06-02T22:14:23.638Z,4.50
2018-06-02T22:19:51.806Z,4.30
2018-06-02T22:25:19.936Z,4.57
2018-06-02T22:30:48.089Z,4.40
2018-06-02T22:36:17.227Z,4.17
2018-06-02T22:41:45.398Z,4.43
2018-06-02T22:47:13.565Z,3.90
2018-06-02T22:52:41.778Z,4.60
2018-06-02T22:58:10.695Z,4.17
2018-06-02T23:03:39.743Z,3.80
2018-06-02T23:09:09.309Z,3.77
2018-06-02T23:14:37.508Z,3.80
2018-06-02T23:20:06.418Z,4.00
2018-06-02T23:25:34.567Z,3.80
2018-06-02T23:31:03.468Z,3.57
2018-06-02T23:36:31.625Z,3.40
2018-06-02T23:42:00.524Z,4.47
2018-06-02T23:47:28.667Z,4.00
2018-06-02T23:52:56.815Z,5.07
2018-06-02T23:58:24.971Z,4.50
